createdAt,value
2023-02-07T00:00:00.309Z,42.97
2023-02-07T00:01:23.494Z,42.95
2023-02-07T00:02:45.468Z,42.63
2023-02-07T00:04:08.785Z,42.88
2023-02-07T00:05:29.617Z,42.77
2023-02-07T00:06:50.990Z,43.10
2023-02-07T00:08:14.990Z,43.15
2023-02-07T00:09:36.258Z,43.46
2023-02-07T00:11:04.576Z,42.98
2023-02-07T00:12:25.780Z,43.25
2023-02-07T00:13:49.207Z,43.29
2023-02-07T00:15:10.958Z,42.85
2023-02-07T00:16:32.457Z,42.80
2023-02-07T00:17:53.225Z,42.75
2023-02-07T00:19:13.963Z,42.74
2023-02-07T00:20:35.250Z,43.34
2023-02-07T00:21:59.566Z,42.76
2023-02-07T00:23:20.799Z,43.08
2023-02-07T00:24:44.411Z,43.76
2023-02-07T00:26:12.909Z,43.44
2023-02-07T00:27:36.493Z,43.21
2023-02-07T00:28:57.805Z,43.14
2023-02-07T00:30:19.302Z,43.36
2023-02-07T00:31:40.768Z,43.32
2023-02-07T00:33:02.458Z,43.27
2023-02-07T00:34:23.301Z,43.34
2023-02-07T00:35:44.459Z,42.96
2023-02-07T00:37:08.418Z,43.42
2023-02-07T00:38:29.671Z,42.90
2023-02-07T00:39:50.815Z,43.00
2023-02-07T00:41:14.504Z,43.42
2023-02-07T00:42:35.370Z,43.42
2023-02-07T00:43:56.458Z,43.25
2023-02-07T00:45:20.036Z,42.53
2023-02-07T00:46:41.557Z,42.83
2023-02-07T00:48:05.832Z,42.66
2023-02-07T00:49:29.652Z,43.13
2023-02-07T00:50:51.791Z,43.20
2023-02-07T00:52:12.621Z,42.73
2023-02-07T00:53:33.731Z,43.41
2023-02-07T00:54:56.192Z,43.58
2023-02-07T00:56:21.308Z,43.52
2023-02-07T00:57:42.664Z,43.47
2023-02-07T00:59:03.468Z,42.87
2023-02-07T01:00:24.548Z,42.90
2023-02-07T01:01:46.035Z,43.81
2023-02-07T01:03:07.052Z,43.39
2023-02-07T01:04:33.733Z,43.47
2023-02-07T01:05:54.861Z,42.97
2023-02-07T01:07:20.095Z,42.95
2023-02-07T01:08:43.146Z,43.56
2023-02-07T01:10:05.338Z,43.34
2023-02-07T01:11:29.922Z,43.18
2023-02-07T01:12:52.144Z,43.34
2023-02-07T01:14:13.527Z,42.94
2023-02-07T01:15:37.366Z,43.44
2023-02-07T01:16:58.740Z,42.89
2023-02-07T01:18:19.793Z,43.72
2023-02-07T01:19:43.813Z,43.18
2023-02-07T01:21:14.287Z,43.29
2023-02-07T01:22:36.369Z,43.48
2023-02-07T01:23:57.650Z,43.15
2023-02-07T01:25:21.466Z,43.43
2023-02-07T01:26:45.138Z,43.19
2023-02-07T01:28:09.105Z,43.70
2023-02-07T01:29:30.027Z,42.52
2023-02-07T01:30:51.107Z,43.09
2023-02-07T01:32:12.123Z,43.06
2023-02-07T01:33:33.317Z,43.06
2023-02-07T01:34:54.820Z,43.02
2023-02-07T01:36:16.569Z,43.22
2023-02-07T01:37:38.324Z,43.09
2023-02-07T01:38:59.137Z,43.17
2023-02-07T01:40:20.577Z,42.80
2023-02-07T01:41:44.565Z,43.36
2023-02-07T01:43:17.000Z,43.59
2023-02-07T01:44:59.788Z,42.77
2023-02-07T01:46:21.185Z,43.42
2023-02-07T01:47:42.379Z,43.14
2023-02-07T01:49:05.061Z,42.79
2023-02-07T01:50:26.516Z,43.19
2023-02-07T01:51:56.393Z,42.72
2023-02-07T01:53:21.651Z,43.00
2023-02-07T01:54:45.550Z,43.57
2023-02-07T01:56:29.419Z,43.21
2023-02-07T01:57:56.717Z,42.80
2023-02-07T01:59:18.276Z,42.97
2023-02-07T02:00:39.987Z,43.16
2023-02-07T02:02:04.541Z,43.27
2023-02-07T02:03:28.139Z,42.86
2023-02-07T02:04:52.104Z,42.73
2023-02-07T02:06:14.100Z,42.77
2023-02-07T02:07:38.403Z,42.83
2023-02-07T02:09:01.599Z,43.31
2023-02-07T02:10:28.227Z,42.98
2023-02-07T02:12:11.827Z,42.85
2023-02-07T02:13:43.735Z,42.61
2023-02-07T02:15:20.680Z,42.96
2023-02-07T02:16:48.419Z,43.12
2023-02-07T02:18:23.573Z,42.37
2023-02-07T02:20:15.264Z,42.62
2023-02-07T02:22:05.705Z,43.00
2023-02-07T02:23:41.501Z,42.46
2023-02-07T02:25:26.501Z,42.91
2023-02-07T02:26:57.840Z,42.67
2023-02-07T02:28:52.826Z,43.27
2023-02-07T02:30:43.854Z,42.02
2023-02-07T02:32:40.377Z,42.81
2023-02-07T02:34:09.902Z,43.13
2023-02-07T02:35:40.263Z,42.74
2023-02-07T02:37:14.276Z,42.83
2023-02-07T02:38:48.063Z,42.44
2023-02-07T02:40:14.102Z,42.85
2023-02-07T02:41:40.513Z,42.66
2023-02-07T02:43:09.105Z,42.62
2023-02-07T02:44:38.196Z,42.55
2023-02-07T02:46:04.009Z,43.19
2023-02-07T02:47:29.603Z,43.04
2023-02-07T02:48:53.238Z,42.64
2023-02-07T02:50:21.904Z,43.21
2023-02-07T02:51:43.151Z,42.95
2023-02-07T02:53:06.783Z,42.88
2023-02-07T02:54:31.417Z,42.89
2023-02-07T02:56:31.283Z,43.19
2023-02-07T02:58:05.242Z,42.61
2023-02-07T02:59:51.354Z,42.86
2023-02-07T03:01:23.750Z,42.62
2023-02-07T03:02:58.629Z,42.49
2023-02-07T03:04:46.816Z,42.88
2023-02-07T03:06:21.651Z,42.44
2023-02-07T03:07:54.280Z,42.55
2023-02-07T03:09:25.088Z,42.59
2023-02-07T03:10:55.866Z,42.55
2023-02-07T03:12:25.394Z,42.74
2023-02-07T03:13:56.029Z,42.64
2023-02-07T03:15:24.500Z,42.69
2023-02-07T03:16:55.676Z,42.03
2023-02-07T03:18:21.937Z,42.68
2023-02-07T03:19:52.236Z,43.25
2023-02-07T03:21:24.034Z,43.43
2023-02-07T03:22:47.387Z,44.10
2023-02-07T03:24:13.549Z,43.73
2023-02-07T03:25:36.812Z,45.48
2023-02-07T03:27:01.325Z,46.24
2023-02-07T03:28:23.834Z,46.08
2023-02-07T03:29:52.564Z,46.58
2023-02-07T03:31:17.637Z,46.60
2023-02-07T03:32:42.248Z,46.32
2023-02-07T03:34:09.080Z,46.14
2023-02-07T03:35:38.180Z,46.20
2023-02-07T03:37:12.386Z,45.80
2023-02-07T03:38:33.269Z,45.59
2023-02-07T03:39:54.519Z,45.80
2023-02-07T03:41:21.480Z,45.75
2023-02-07T03:42:46.911Z,45.45
2023-02-07T03:44:10.963Z,45.64
2023-02-07T03:45:35.328Z,45.57
2023-02-07T03:46:57.629Z,45.66
2023-02-07T03:48:19.040Z,45.56
2023-02-07T03:49:40.100Z,45.58
2023-02-07T03:51:01.317Z,45.63
2023-02-07T03:52:27.180Z,46.11
2023-02-07T03:53:51.175Z,45.86
2023-02-07T03:55:12.774Z,45.59
2023-02-07T03:56:34.289Z,45.93
2023-02-07T03:57:55.616Z,45.70
2023-02-07T03:59:16.509Z,45.96
2023-02-07T04:00:39.736Z,46.08
2023-02-07T04:02:00.627Z,45.71
2023-02-07T04:03:21.767Z,46.13
2023-02-07T04:04:43.292Z,45.87
2023-02-07T04:06:05.095Z,45.94
2023-02-07T04:07:28.986Z,46.10
2023-02-07T04:08:50.471Z,46.35
2023-02-07T04:10:14.882Z,45.74
2023-02-07T04:11:35.996Z,45.67
2023-02-07T04:12:59.810Z,46.17
2023-02-07T04:14:21.111Z,46.05
2023-02-07T04:15:42.402Z,45.92
2023-02-07T04:17:06.108Z,45.69
2023-02-07T04:18:29.920Z,46.19
2023-02-07T04:19:53.454Z,46.12
2023-02-07T04:21:14.218Z,45.82
2023-02-07T04:22:37.868Z,46.33
2023-02-07T04:23:59.160Z,46.29
2023-02-07T04:25:20.367Z,43.40
2023-02-07T04:26:46.252Z,45.70
2023-02-07T04:28:07.437Z,46.12
2023-02-07T04:29:30.708Z,46.99
2023-02-07T04:30:51.990Z,47.30
2023-02-07T04:32:13.090Z,46.82
2023-02-07T04:33:34.046Z,46.74
2023-02-07T04:34:55.048Z,40.31
2023-02-07T04:36:16.401Z,37.81
2023-02-07T04:37:42.767Z,40.88
2023-02-07T04:39:06.153Z,42.07
2023-02-07T04:40:27.107Z,44.98
2023-02-07T04:41:48.004Z,44.11
2023-02-07T04:43:09.091Z,44.51
2023-02-07T04:44:30.562Z,44.73
2023-02-07T04:45:51.866Z,45.12
2023-02-07T04:47:13.274Z,44.58
2023-02-07T04:48:36.362Z,44.48
2023-02-07T04:49:57.647Z,44.96
2023-02-07T04:51:18.554Z,45.05
2023-02-07T04:52:42.315Z,44.91
2023-02-07T04:54:04.104Z,45.38
2023-02-07T04:55:27.432Z,45.58
2023-02-07T04:56:48.302Z,44.96
2023-02-07T04:58:09.747Z,45.08
2023-02-07T04:59:31.266Z,44.83
2023-02-07T05:00:52.978Z,45.02
2023-02-07T05:02:14.003Z,44.97
2023-02-07T05:03:34.813Z,44.79
2023-02-07T05:04:55.588Z,44.71
2023-02-07T05:06:19.398Z,45.34
2023-02-07T05:07:43.251Z,45.19
2023-02-07T05:09:04.391Z,44.87
2023-02-07T05:10:25.399Z,45.35
2023-02-07T05:11:46.230Z,45.58
2023-02-07T05:13:07.533Z,45.46
2023-02-07T05:14:28.654Z,45.27
2023-02-07T05:15:49.501Z,45.49
2023-02-07T05:17:10.583Z,45.63
2023-02-07T05:18:34.257Z,45.25
2023-02-07T05:19:55.467Z,45.62
2023-02-07T05:21:16.358Z,45.65
2023-02-07T05:22:42.068Z,45.94
2023-02-07T05:24:03.450Z,46.02
2023-02-07T05:25:27.580Z,45.99
2023-02-07T05:26:48.553Z,45.78
2023-02-07T05:28:12.006Z,46.09
2023-02-07T05:29:36.104Z,46.20
2023-02-07T05:30:56.919Z,46.42
2023-02-07T05:32:20.424Z,46.26
2023-02-07T05:33:44.186Z,46.14
2023-02-07T05:35:06.304Z,46.38
2023-02-07T05:36:30.412Z,46.05
2023-02-07T05:37:53.987Z,46.60
2023-02-07T05:39:15.203Z,46.50
2023-02-07T05:40:37.619Z,46.13
2023-02-07T05:42:01.080Z,46.46
2023-02-07T05:43:21.986Z,46.62
2023-02-07T05:44:45.456Z,46.59
2023-02-07T05:46:06.985Z,46.34
2023-02-07T05:47:30.679Z,46.53
2023-02-07T05:48:51.723Z,46.61
2023-02-07T05:50:13.126Z,47.13
2023-02-07T05:51:34.476Z,47.19
2023-02-07T05:53:02.663Z,46.89
2023-02-07T05:54:26.359Z,47.10
2023-02-07T05:55:51.448Z,46.93
2023-02-07T05:57:12.567Z,47.42
2023-02-07T05:58:36.505Z,47.44
2023-02-07T05:59:57.684Z,47.40
2023-02-07T06:01:21.736Z,47.12
2023-02-07T06:02:43.661Z,46.90
2023-02-07T06:04:07.337Z,46.98
2023-02-07T06:05:28.216Z,47.43
2023-02-07T06:06:49.276Z,47.12
2023-02-07T06:08:16.106Z,47.04
2023-02-07T06:09:39.601Z,47.06
2023-02-07T06:11:00.360Z,46.73
2023-02-07T06:12:21.135Z,47.21
2023-02-07T06:13:41.983Z,46.42
2023-02-07T06:15:05.697Z,47.24
2023-02-07T06:16:26.959Z,46.55
2023-02-07T06:17:47.727Z,46.64
2023-02-07T06:19:11.930Z,46.74
2023-02-07T06:20:33.116Z,46.89
2023-02-07T06:21:54.530Z,46.84
2023-02-07T06:23:17.941Z,46.35
2023-02-07T06:24:39.727Z,47.16
2023-02-07T06:26:01.079Z,46.75
2023-02-07T06:27:22.282Z,46.21
2023-02-07T06:28:43.813Z,46.68
2023-02-07T06:30:04.922Z,46.22
2023-02-07T06:31:26.271Z,46.30
2023-02-07T06:32:47.247Z,46.32
2023-02-07T06:34:11.215Z,46.15
2023-02-07T06:35:32.485Z,46.16
2023-02-07T06:36:56.204Z,46.51
2023-02-07T06:38:19.656Z,46.14
2023-02-07T06:39:43.619Z,46.70
2023-02-07T06:41:04.685Z,46.78
2023-02-07T06:42:26.201Z,46.07
2023-02-07T06:43:47.363Z,46.97
2023-02-07T06:45:09.433Z,46.71
2023-02-07T06:46:33.077Z,47.13
2023-02-07T06:47:54.369Z,46.75
2023-02-07T06:49:15.864Z,46.55
2023-02-07T06:50:37.172Z,46.61
2023-02-07T06:52:00.562Z,46.48
2023-02-07T06:53:24.657Z,46.84
2023-02-07T06:54:48.006Z,46.87
2023-02-07T06:56:11.739Z,46.58
2023-02-07T06:57:32.529Z,46.43
2023-02-07T06:58:53.624Z,46.64
2023-02-07T07:00:15.421Z,46.22
2023-02-07T07:01:36.448Z,46.63
2023-02-07T07:02:58.143Z,46.24
2023-02-07T07:04:21.412Z,46.64
2023-02-07T07:05:43.612Z,46.79
2023-02-07T07:07:04.977Z,46.80
2023-02-07T07:08:28.454Z,46.21
2023-02-07T07:09:50.012Z,46.87
2023-02-07T07:11:13.183Z,47.08
2023-02-07T07:12:34.077Z,46.62
2023-02-07T07:13:57.361Z,46.73
2023-02-07T07:15:18.547Z,46.64
2023-02-07T07:16:39.468Z,46.63
2023-02-07T07:18:00.792Z,47.03
2023-02-07T07:19:24.489Z,46.42
2023-02-07T07:20:45.735Z,46.91
2023-02-07T07:22:09.807Z,46.54
2023-02-07T07:23:34.040Z,46.61
2023-02-07T07:24:55.167Z,46.91
2023-02-07T07:26:16.468Z,46.49
2023-02-07T07:27:40.108Z,46.95
2023-02-07T07:29:01.454Z,46.55
2023-02-07T07:30:25.592Z,46.79
2023-02-07T07:31:47.466Z,46.61
2023-02-07T07:33:08.883Z,46.53
2023-02-07T07:34:32.765Z,46.87
2023-02-07T07:35:54.879Z,46.65
2023-02-07T07:37:16.084Z,46.93
2023-02-07T07:38:40.075Z,46.61
2023-02-07T07:40:04.347Z,47.08
2023-02-07T07:41:28.441Z,47.19
2023-02-07T07:42:49.491Z,47.22
2023-02-07T07:44:28.616Z,47.15
2023-02-07T07:45:52.949Z,46.97
2023-02-07T07:47:14.123Z,46.66
2023-02-07T07:48:34.941Z,47.19
2023-02-07T07:49:56.209Z,47.24
2023-02-07T07:51:17.142Z,47.10
2023-02-07T07:52:37.927Z,46.88
2023-02-07T07:54:04.137Z,46.89
2023-02-07T07:55:27.987Z,46.77
2023-02-07T07:56:49.530Z,46.43
2023-02-07T07:58:10.715Z,47.13
2023-02-07T07:59:32.200Z,46.94
2023-02-07T08:00:53.517Z,46.52
2023-02-07T08:02:18.077Z,47.25
2023-02-07T08:03:39.282Z,46.58
2023-02-07T08:05:00.215Z,36.62
2023-02-07T08:06:24.109Z,21.78
2023-02-07T08:07:45.396Z,22.58
2023-02-07T08:09:09.085Z,24.59
2023-02-07T08:10:30.348Z,27.45
2023-02-07T08:11:51.320Z,29.70
2023-02-07T08:13:12.203Z,31.23
2023-02-07T08:14:34.574Z,33.06
2023-02-07T08:15:55.429Z,35.57
2023-02-07T08:17:18.962Z,37.64
2023-02-07T08:18:40.398Z,38.21
2023-02-07T08:20:01.823Z,38.32
2023-02-07T08:21:26.015Z,38.16
2023-02-07T08:22:47.086Z,37.97
2023-02-07T08:24:10.581Z,37.85
2023-02-07T08:25:32.025Z,37.92
2023-02-07T08:26:52.883Z,37.60
2023-02-07T08:28:14.584Z,37.56
2023-02-07T08:29:35.443Z,37.85
2023-02-07T08:31:00.003Z,37.82
2023-02-07T08:32:21.326Z,38.21
2023-02-07T08:33:42.748Z,38.33
2023-02-07T08:35:03.675Z,38.19
2023-02-07T08:36:25.316Z,38.26
2023-02-07T08:37:46.794Z,37.83
2023-02-07T08:39:10.716Z,37.96
2023-02-07T08:40:32.093Z,38.07
2023-02-07T08:41:52.833Z,38.13
2023-02-07T08:43:14.136Z,37.93
2023-02-07T08:44:35.035Z,38.48
2023-02-07T08:45:56.122Z,38.47
2023-02-07T08:47:17.995Z,38.83
2023-02-07T08:48:40.200Z,38.73
2023-02-07T08:50:05.769Z,38.38
2023-02-07T08:51:26.830Z,38.64
2023-02-07T08:52:50.503Z,38.47
2023-02-07T08:54:14.320Z,38.81
2023-02-07T08:55:35.932Z,38.38
2023-02-07T08:56:57.284Z,38.56
2023-02-07T08:58:18.588Z,38.11
2023-02-07T08:59:43.063Z,37.82
2023-02-07T09:01:06.730Z,37.81
2023-02-07T09:02:28.290Z,37.90
2023-02-07T09:03:54.641Z,38.18
2023-02-07T09:05:15.973Z,37.91
2023-02-07T09:06:37.491Z,37.99
2023-02-07T09:07:58.974Z,38.39
2023-02-07T09:09:22.479Z,38.01
2023-02-07T09:10:45.983Z,38.09
2023-02-07T09:12:09.701Z,38.75
2023-02-07T09:13:30.867Z,38.39
2023-02-07T09:14:51.685Z,38.46
2023-02-07T09:16:14.902Z,38.17
2023-02-07T09:17:36.426Z,38.54
2023-02-07T09:19:00.564Z,38.56
2023-02-07T09:20:24.082Z,38.18
2023-02-07T09:21:45.591Z,38.73
2023-02-07T09:23:06.836Z,38.86
2023-02-07T09:24:30.821Z,38.79
2023-02-07T09:25:54.728Z,39.07
2023-02-07T09:27:16.221Z,38.58
2023-02-07T09:28:37.282Z,39.00
2023-02-07T09:29:58.133Z,38.98
2023-02-07T09:31:19.524Z,39.11
2023-02-07T09:32:46.299Z,38.63
2023-02-07T09:34:07.563Z,38.82
2023-02-07T09:35:28.942Z,39.34
2023-02-07T09:36:49.990Z,39.49
2023-02-07T09:38:15.129Z,39.57
2023-02-07T09:39:39.202Z,39.80
2023-02-07T09:41:00.521Z,39.41
2023-02-07T09:42:30.611Z,39.66
2023-02-07T09:44:00.879Z,39.24
2023-02-07T09:45:25.310Z,39.55
2023-02-07T09:46:54.014Z,40.03
2023-02-07T09:48:20.658Z,39.30
2023-02-07T09:49:48.914Z,39.59
2023-02-07T09:51:11.661Z,39.53
2023-02-07T09:52:37.176Z,39.64
2023-02-07T09:54:04.147Z,39.40
2023-02-07T09:55:34.457Z,39.45
2023-02-07T09:57:03.134Z,39.41
2023-02-07T09:58:39.795Z,39.50
2023-02-07T10:00:07.431Z,39.67
2023-02-07T10:01:34.485Z,39.64
2023-02-07T10:02:59.458Z,39.78
2023-02-07T10:04:29.737Z,40.14
2023-02-07T10:06:01.480Z,39.95
2023-02-07T10:07:24.722Z,39.68
2023-02-07T10:08:54.721Z,39.96
2023-02-07T10:10:17.010Z,40.00
2023-02-07T10:11:51.728Z,40.11
2023-02-07T10:13:39.045Z,40.03
2023-02-07T10:15:27.768Z,39.94
2023-02-07T10:17:05.510Z,39.85
2023-02-07T10:18:40.179Z,39.85
2023-02-07T10:20:24.748Z,40.02
2023-02-07T10:21:58.535Z,39.73
2023-02-07T10:23:37.019Z,39.54
2023-02-07T10:25:11.809Z,39.39
2023-02-07T10:26:37.254Z,39.61
2023-02-07T10:28:15.232Z,39.88
2023-02-07T10:29:54.766Z,39.68
2023-02-07T10:31:16.694Z,39.71
2023-02-07T10:32:39.373Z,39.86
2023-02-07T10:34:10.691Z,39.70
2023-02-07T10:35:33.183Z,39.91
2023-02-07T10:36:58.167Z,39.87
2023-02-07T10:38:27.897Z,39.83
2023-02-07T10:40:01.833Z,40.11
2023-02-07T10:41:27.045Z,39.34
2023-02-07T10:42:54.532Z,39.70
2023-02-07T10:44:19.911Z,39.56
2023-02-07T10:45:42.504Z,39.73
2023-02-07T10:47:05.965Z,39.75
2023-02-07T10:48:27.875Z,40.03
2023-02-07T10:49:51.852Z,40.21
2023-02-07T10:51:24.888Z,40.16
2023-02-07T10:52:50.866Z,39.66
2023-02-07T10:54:16.621Z,39.85
2023-02-07T10:55:41.863Z,40.05
2023-02-07T10:57:03.284Z,39.91
2023-02-07T10:58:24.875Z,39.79
2023-02-07T10:59:49.582Z,39.42
2023-02-07T11:01:19.042Z,39.59
2023-02-07T11:02:49.052Z,39.86
2023-02-07T11:04:24.001Z,39.41
2023-02-07T11:05:53.889Z,39.78
2023-02-07T11:07:15.905Z,39.46
2023-02-07T11:08:37.412Z,39.48
2023-02-07T11:10:15.675Z,39.34
2023-02-07T11:11:37.119Z,39.80
2023-02-07T11:13:01.929Z,39.58
2023-02-07T11:14:26.898Z,39.51
2023-02-07T11:15:55.380Z,39.32
2023-02-07T11:17:21.346Z,39.40
2023-02-07T11:18:45.766Z,39.61
2023-02-07T11:20:17.273Z,39.51
2023-02-07T11:21:42.593Z,39.83
2023-02-07T11:23:14.050Z,39.75
2023-02-07T11:24:36.985Z,39.71
2023-02-07T11:25:58.336Z,39.91
2023-02-07T11:27:22.469Z,39.68
2023-02-07T11:28:43.926Z,39.51
2023-02-07T11:30:09.063Z,39.68
2023-02-07T11:31:36.083Z,38.91
2023-02-07T11:33:01.231Z,39.39
2023-02-07T11:34:36.188Z,39.04
2023-02-07T11:36:10.412Z,39.55
2023-02-07T11:37:36.008Z,39.26
2023-02-07T11:38:59.503Z,39.52
2023-02-07T11:40:24.546Z,39.48
2023-02-07T11:41:54.668Z,39.35
2023-02-07T11:43:20.265Z,39.13
2023-02-07T11:44:46.689Z,39.07
2023-02-07T11:46:10.893Z,39.17
2023-02-07T11:47:37.321Z,38.89
2023-02-07T11:49:01.147Z,38.89
2023-02-07T11:50:25.866Z,38.92
2023-02-07T11:51:51.837Z,38.99
2023-02-07T11:53:22.867Z,38.47
2023-02-07T11:54:51.009Z,39.06
2023-02-07T11:56:23.006Z,38.98
2023-02-07T11:57:46.414Z,39.06
2023-02-07T11:59:14.068Z,38.94
2023-02-07T12:00:38.878Z,38.76
2023-02-07T12:02:17.068Z,38.79
2023-02-07T12:03:49.092Z,38.42
2023-02-07T12:05:19.799Z,39.09
2023-02-07T12:06:47.074Z,38.79
2023-02-07T12:08:14.353Z,38.69
2023-02-07T12:09:41.202Z,38.98
2023-02-07T12:11:10.520Z,39.32
2023-02-07T12:12:39.255Z,38.98
2023-02-07T12:14:08.102Z,39.16
2023-02-07T12:15:38.061Z,39.03
2023-02-07T12:17:01.075Z,38.95
2023-02-07T12:18:28.410Z,38.73
2023-02-07T12:19:58.256Z,38.84
2023-02-07T12:21:24.541Z,39.35
2023-02-07T12:23:04.801Z,38.92
2023-02-07T12:24:38.426Z,38.87
2023-02-07T12:26:05.726Z,39.22
2023-02-07T12:27:35.300Z,39.29
2023-02-07T12:29:26.084Z,39.12
2023-02-07T12:30:52.040Z,39.20
2023-02-07T12:32:18.489Z,38.95
2023-02-07T12:33:46.468Z,38.85
2023-02-07T12:35:20.118Z,38.80
2023-02-07T12:36:46.279Z,39.11
2023-02-07T12:38:16.127Z,38.70
2023-02-07T12:39:43.103Z,38.90
2023-02-07T12:41:13.647Z,39.22
2023-02-07T12:42:40.538Z,39.39
2023-02-07T12:44:10.886Z,39.12
2023-02-07T12:45:49.201Z,38.59
2023-02-07T12:47:23.219Z,39.28
2023-02-07T12:49:04.014Z,39.43
2023-02-07T12:50:49.087Z,39.68
2023-02-07T12:52:25.079Z,39.44
2023-02-07T12:54:03.096Z,39.12
2023-02-07T12:55:38.023Z,39.40
2023-02-07T12:57:09.042Z,39.33
2023-02-07T12:58:42.232Z,39.29
2023-02-07T13:00:11.394Z,39.54
2023-02-07T13:01:39.858Z,39.72
2023-02-07T13:03:18.971Z,39.33
2023-02-07T13:05:05.925Z,39.77
2023-02-07T13:06:35.888Z,39.98
2023-02-07T13:08:07.451Z,39.94
2023-02-07T13:09:38.587Z,40.07
2023-02-07T13:11:12.973Z,39.87
2023-02-07T13:12:39.689Z,39.63
2023-02-07T13:14:15.244Z,39.31
2023-02-07T13:15:45.030Z,39.69
2023-02-07T13:17:26.770Z,39.60
2023-02-07T13:18:56.559Z,39.65
2023-02-07T13:20:33.676Z,39.94
2023-02-07T13:22:02.320Z,39.35
2023-02-07T13:23:30.490Z,39.91
2023-02-07T13:24:52.976Z,39.94
2023-02-07T13:26:17.851Z,40.18
2023-02-07T13:27:40.859Z,39.88
2023-02-07T13:29:10.732Z,40.00
2023-02-07T13:30:34.860Z,40.41
2023-02-07T13:32:02.691Z,39.67
2023-02-07T13:33:30.628Z,39.49
2023-02-07T13:34:58.749Z,39.66
2023-02-07T13:36:35.635Z,39.68
2023-02-07T13:38:07.863Z,39.85
2023-02-07T13:39:45.888Z,39.52
2023-02-07T13:41:15.795Z,39.90
2023-02-07T13:42:46.468Z,39.83
2023-02-07T13:44:16.806Z,39.89
2023-02-07T13:45:50.684Z,39.92
2023-02-07T13:47:36.710Z,40.15
2023-02-07T13:49:07.977Z,39.96
2023-02-07T13:50:41.696Z,39.63
2023-02-07T13:52:10.896Z,39.69
2023-02-07T13:53:46.254Z,40.18
2023-02-07T13:55:22.354Z,39.86
2023-02-07T13:56:56.320Z,40.38
2023-02-07T13:58:47.570Z,40.51
2023-02-07T14:00:18.445Z,40.22
2023-02-07T14:01:51.614Z,40.30
2023-02-07T14:03:20.932Z,40.61
2023-02-07T14:04:50.753Z,40.60
2023-02-07T14:06:22.186Z,40.38
2023-02-07T14:07:52.739Z,40.13
2023-02-07T14:09:24.164Z,40.71
2023-02-07T14:10:47.906Z,39.80
2023-02-07T14:12:19.409Z,40.27
2023-02-07T14:13:40.941Z,40.14
2023-02-07T14:15:34.789Z,40.93
2023-02-07T14:16:57.636Z,41.06
2023-02-07T14:18:38.026Z,41.08
2023-02-07T14:20:05.328Z,41.04
2023-02-07T14:21:40.109Z,41.11
2023-02-07T14:23:14.770Z,41.26
2023-02-07T14:24:49.706Z,41.05
2023-02-07T14:26:40.624Z,41.66
2023-02-07T14:28:29.127Z,41.72
2023-02-07T14:29:55.804Z,41.12
2023-02-07T14:31:23.191Z,41.57
2023-02-07T14:33:00.780Z,41.16
2023-02-07T14:34:23.618Z,41.65
2023-02-07T14:36:03.683Z,41.88
2023-02-07T14:37:39.164Z,41.32
2023-02-07T14:39:06.468Z,41.93
2023-02-07T14:40:36.356Z,41.95
2023-02-07T14:42:11.053Z,42.39
2023-02-07T14:43:43.351Z,42.07
2023-02-07T14:45:04.866Z,41.40
2023-02-07T14:46:28.774Z,42.13
2023-02-07T14:47:51.527Z,42.08
2023-02-07T14:49:21.509Z,41.86
2023-02-07T14:50:52.706Z,41.95
2023-02-07T14:52:21.221Z,42.07
2023-02-07T14:53:44.219Z,42.26
2023-02-07T14:55:14.473Z,42.31
2023-02-07T14:56:51.456Z,41.90
2023-02-07T14:58:25.139Z,42.25
2023-02-07T14:59:54.373Z,42.52
2023-02-07T15:01:18.173Z,42.54
2023-02-07T15:02:41.323Z,42.77
2023-02-07T15:04:07.134Z,42.38
2023-02-07T15:05:31.551Z,42.89
2023-02-07T15:06:53.070Z,42.23
2023-02-07T15:08:18.253Z,42.61
2023-02-07T15:09:42.397Z,43.20
2023-02-07T15:11:04.710Z,43.02
2023-02-07T15:12:28.622Z,42.59
2023-02-07T15:13:50.252Z,42.65
2023-02-07T15:15:18.470Z,43.22
2023-02-07T15:16:42.315Z,43.36
2023-02-07T15:18:12.391Z,43.54
2023-02-07T15:19:39.517Z,43.34
2023-02-07T15:21:03.343Z,43.08
2023-02-07T15:22:29.686Z,43.12
2023-02-07T15:23:57.339Z,43.12
2023-02-07T15:25:22.034Z,43.57
2023-02-07T15:26:48.519Z,43.90
2023-02-07T15:28:27.479Z,43.90
2023-02-07T15:29:55.453Z,43.72
2023-02-07T15:31:17.121Z,43.65
2023-02-07T15:32:43.558Z,43.88
2023-02-07T15:34:06.758Z,43.68
2023-02-07T15:35:36.039Z,44.18
2023-02-07T15:36:58.544Z,43.90
2023-02-07T15:38:23.416Z,44.24
2023-02-07T15:39:44.873Z,43.99
2023-02-07T15:41:08.441Z,44.32
2023-02-07T15:42:29.288Z,44.20
2023-02-07T15:43:58.895Z,44.34
2023-02-07T15:45:24.982Z,44.39
2023-02-07T15:46:47.696Z,44.76
2023-02-07T15:48:18.719Z,44.31
2023-02-07T15:49:41.752Z,44.30
2023-02-07T15:51:05.238Z,44.59
2023-02-07T15:52:32.163Z,44.35
2023-02-07T15:53:57.843Z,44.65
2023-02-07T15:55:26.601Z,44.50
2023-02-07T15:56:52.082Z,44.20
2023-02-07T15:58:24.727Z,44.72
2023-02-07T15:59:52.015Z,44.94
2023-02-07T16:01:22.230Z,44.76
2023-02-07T16:02:46.122Z,44.36
2023-02-07T16:04:08.312Z,44.74
2023-02-07T16:05:31.980Z,45.04
2023-02-07T16:06:59.019Z,44.56
2023-02-07T16:08:30.926Z,45.14
2023-02-07T16:09:52.227Z,44.53
2023-02-07T16:11:33.124Z,45.19
2023-02-07T16:13:00.397Z,44.62
2023-02-07T16:14:23.898Z,45.18
2023-02-07T16:15:56.461Z,45.42
2023-02-07T16:17:22.392Z,45.38
2023-02-07T16:18:45.795Z,45.06
2023-02-07T16:20:14.069Z,44.83
2023-02-07T16:21:37.715Z,44.67
2023-02-07T16:23:01.758Z,45.21
2023-02-07T16:24:24.691Z,44.81
2023-02-07T16:25:45.865Z,45.30
2023-02-07T16:27:15.935Z,45.17
2023-02-07T16:28:37.376Z,44.94
2023-02-07T16:29:59.486Z,44.92
2023-02-07T16:31:23.750Z,44.95
2023-02-07T16:32:44.922Z,45.06
2023-02-07T16:34:06.293Z,45.33
2023-02-07T16:35:30.473Z,45.29
2023-02-07T16:36:53.340Z,44.77
2023-02-07T16:38:16.942Z,45.03
2023-02-07T16:39:40.950Z,44.87
2023-02-07T16:41:05.303Z,45.07
2023-02-07T16:42:26.622Z,44.74
2023-02-07T16:43:50.213Z,44.69
2023-02-07T16:45:19.485Z,44.90
2023-02-07T16:46:43.514Z,44.86
2023-02-07T16:48:14.507Z,44.88
2023-02-07T16:49:38.209Z,44.93
2023-02-07T16:50:59.634Z,44.66
2023-02-07T16:52:20.447Z,45.03
2023-02-07T16:53:41.314Z,44.87
2023-02-07T16:55:02.364Z,44.81
2023-02-07T16:56:27.247Z,44.76
2023-02-07T16:57:48.813Z,44.75
2023-02-07T16:59:12.701Z,44.31
2023-02-07T17:00:33.859Z,44.53
2023-02-07T17:01:57.889Z,45.57
2023-02-07T17:03:19.412Z,44.68
2023-02-07T17:04:40.734Z,45.20
2023-02-07T17:06:04.758Z,44.56
2023-02-07T17:07:25.918Z,44.95
2023-02-07T17:08:48.266Z,44.80
2023-02-07T17:10:21.178Z,45.01
2023-02-07T17:11:42.447Z,45.13
2023-02-07T17:13:03.925Z,45.25
2023-02-07T17:14:24.796Z,45.13
2023-02-07T17:15:46.229Z,45.08
2023-02-07T17:17:09.670Z,44.93
2023-02-07T17:18:30.447Z,44.67
2023-02-07T17:19:51.288Z,45.10
2023-02-07T17:21:12.682Z,44.91
2023-02-07T17:22:33.620Z,44.86
2023-02-07T17:23:54.901Z,45.00
2023-02-07T17:25:20.926Z,44.74
2023-02-07T17:26:47.317Z,45.10
2023-02-07T17:28:13.002Z,44.89
2023-02-07T17:29:34.525Z,44.98
2023-02-07T17:30:55.379Z,44.81
2023-02-07T17:32:21.197Z,44.77
2023-02-07T17:33:42.542Z,44.56
2023-02-07T17:35:03.882Z,44.42
2023-02-07T17:36:27.556Z,44.34
2023-02-07T17:37:49.623Z,45.07
2023-02-07T17:39:12.546Z,45.37
2023-02-07T17:40:38.770Z,44.70
2023-02-07T17:42:00.208Z,45.36
2023-02-07T17:43:21.609Z,44.93
2023-02-07T17:44:42.634Z,44.85
2023-02-07T17:46:17.597Z,45.47
2023-02-07T17:47:43.474Z,45.04
2023-02-07T17:49:13.626Z,45.08
2023-02-07T17:50:39.595Z,45.21
2023-02-07T17:52:00.945Z,44.93
2023-02-07T17:53:26.554Z,45.41
2023-02-07T17:54:47.956Z,44.69
2023-02-07T17:56:19.938Z,45.27
2023-02-07T17:57:41.425Z,44.73
2023-02-07T17:59:06.387Z,44.79
2023-02-07T18:00:29.337Z,44.90
2023-02-07T18:01:51.005Z,45.28
2023-02-07T18:03:14.849Z,44.65
2023-02-07T18:04:35.966Z,45.30
2023-02-07T18:05:56.786Z,45.01
2023-02-07T18:07:17.865Z,45.01
2023-02-07T18:08:42.564Z,44.92
2023-02-07T18:10:04.200Z,45.20
2023-02-07T18:11:28.686Z,45.23
2023-02-07T18:12:50.333Z,45.45
2023-02-07T18:14:10.888Z,45.04
2023-02-07T18:15:33.085Z,44.91
2023-02-07T18:16:56.831Z,45.53
2023-02-07T18:18:20.861Z,45.36
2023-02-07T18:19:42.199Z,45.16
2023-02-07T18:21:04.234Z,45.00
2023-02-07T18:22:25.277Z,45.17
2023-02-07T18:23:46.279Z,44.81